createdAt,value
2022-12-05T00:02:35.372Z,9.10
2022-12-05T00:05:21.152Z,9.10
2022-12-05T00:08:06.773Z,9.10
2022-12-05T00:10:52.268Z,9.20
2022-12-05T00:13:40.388Z,9.20
2022-12-05T00:16:33.044Z,9.10
2022-12-05T00:19:19.205Z,9.10
2022-12-05T00:22:04.742Z,9.10
2022-12-05T00:24:50.489Z,9.10
2022-12-05T00:27:36.536Z,9.10
2022-12-05T00:30:21.856Z,9.10
2022-12-05T00:33:07.820Z,9.10
2022-12-05T00:35:53.616Z,9.10
2022-12-05T00:38:40.082Z,9.20
2022-12-05T00:41:28.272Z,9.10
2022-12-05T00:44:14.022Z,9.10
2022-12-05T00:46:59.547Z,9.00
2022-12-05T00:49:45.312Z,9.00
2022-12-05T00:52:31.484Z,8.90
2022-12-05T00:55:17.311Z,9.00
2022-12-05T00:58:02.756Z,9.00
2022-12-05T01:00:48.764Z,9.10
2022-12-05T01:03:34.872Z,9.10
2022-12-05T01:06:21.569Z,9.10
2022-12-05T01:09:07.507Z,9.10
2022-12-05T01:11:53.676Z,9.10
2022-12-05T01:14:39.064Z,9.20
2022-12-05T01:17:24.472Z,9.20
2022-12-05T01:20:10.495Z,9.20
2022-12-05T01:22:56.056Z,9.20
2022-12-05T01:25:44.040Z,9.20
2022-12-05T01:28:29.804Z,9.20
2022-12-05T01:31:29.150Z,9.20
2022-12-05T01:34:17.008Z,9.20
2022-12-05T01:37:03.113Z,9.30
2022-12-05T01:39:49.431Z,9.20
2022-12-05T01:42:35.135Z,9.20
2022-12-05T01:45:34.806Z,9.20
2022-12-05T01:48:33.345Z,9.10
2022-12-05T01:51:19.271Z,9.10
2022-12-05T01:54:06.066Z,9.10
2022-12-05T01:56:57.996Z,9.10
2022-12-05T01:59:51.914Z,9.00
2022-12-05T02:02:39.132Z,9.00
2022-12-05T02:05:36.265Z,8.90
2022-12-05T02:08:22.347Z,9.00
2022-12-05T02:11:09.410Z,9.00
2022-12-05T02:14:16.230Z,9.00
2022-12-05T02:17:10.007Z,9.10
2022-12-05T02:20:41.695Z,9.00
2022-12-05T02:23:51.876Z,9.00
2022-12-05T02:27:12.916Z,9.00
2022-12-05T02:30:06.925Z,9.00
2022-12-05T02:32:52.883Z,9.00
2022-12-05T02:36:03.970Z,8.90
2022-12-05T02:39:03.141Z,9.00
2022-12-05T02:41:51.615Z,9.00
2022-12-05T02:44:51.206Z,9.00
2022-12-05T02:47:46.551Z,8.90
2022-12-05T02:50:36.502Z,8.90
2022-12-05T02:53:24.134Z,8.90
2022-12-05T02:56:10.697Z,8.90
2022-12-05T02:58:56.748Z,8.90
2022-12-05T03:01:45.741Z,8.90
2022-12-05T03:04:32.002Z,8.90
2022-12-05T03:07:19.995Z,8.90
2022-12-05T03:10:08.031Z,8.90
2022-12-05T03:13:03.479Z,8.90
2022-12-05T03:15:53.452Z,8.90
2022-12-05T03:18:56.652Z,9.00
2022-12-05T03:22:10.572Z,8.90
2022-12-05T03:24:56.741Z,8.90
2022-12-05T03:28:12.803Z,8.90
2022-12-05T03:31:05.203Z,8.90
2022-12-05T03:33:58.432Z,8.80
2022-12-05T03:36:52.667Z,8.90
2022-12-05T03:39:42.104Z,8.80
2022-12-05T03:42:35.185Z,8.80
2022-12-05T03:45:31.984Z,8.80
2022-12-05T03:48:37.090Z,8.80
2022-12-05T03:51:28.671Z,8.80
2022-12-05T03:54:18.892Z,8.80
2022-12-05T03:57:23.055Z,8.80
2022-12-05T04:00:12.492Z,8.80
2022-12-05T04:03:08.000Z,8.80
2022-12-05T04:05:58.988Z,8.80
2022-12-05T04:08:49.639Z,8.80
2022-12-05T04:11:41.250Z,8.80
2022-12-05T04:14:44.902Z,8.90
2022-12-05T04:18:00.507Z,8.90
2022-12-05T04:21:07.575Z,9.00
2022-12-05T04:24:13.259Z,9.00
2022-12-05T04:27:22.976Z,9.00
2022-12-05T04:30:21.507Z,8.90
2022-12-05T04:33:11.499Z,9.00
2022-12-05T04:36:09.846Z,8.90
2022-12-05T04:39:01.865Z,8.90
2022-12-05T04:41:55.539Z,9.00
2022-12-05T04:44:48.911Z,8.90
2022-12-05T04:47:45.640Z,8.90
2022-12-05T04:50:34.751Z,9.00
2022-12-05T04:53:22.278Z,9.00
2022-12-05T04:56:14.683Z,9.00
2022-12-05T04:59:00.467Z,9.00
2022-12-05T05:01:51.474Z,9.00
2022-12-05T05:04:43.364Z,8.90
2022-12-05T05:07:29.417Z,8.90
2022-12-05T05:10:19.805Z,8.90
2022-12-05T05:13:05.687Z,8.90
2022-12-05T05:15:51.601Z,9.00
2022-12-05T05:18:37.466Z,9.00
2022-12-05T05:21:35.317Z,9.00
2022-12-05T05:24:26.302Z,9.10
2022-12-05T05:27:11.839Z,9.00
2022-12-05T05:29:57.550Z,9.00
2022-12-05T05:32:43.548Z,9.00
2022-12-05T05:35:29.494Z,8.90
2022-12-05T05:38:15.112Z,9.00
2022-12-05T05:41:01.158Z,8.90
2022-12-05T05:43:47.288Z,8.90
2022-12-05T05:46:35.421Z,8.90
2022-12-05T05:49:21.086Z,8.90
2022-12-05T05:52:06.972Z,8.90
2022-12-05T05:54:52.789Z,9.00
2022-12-05T05:57:38.363Z,8.90
2022-12-05T06:00:24.230Z,8.90
2022-12-05T06:03:10.164Z,9.00
2022-12-05T06:06:00.358Z,9.00
2022-12-05T06:08:46.695Z,9.00
2022-12-05T06:11:32.205Z,9.10
2022-12-05T06:14:18.057Z,9.00
2022-12-05T06:17:03.783Z,9.10
2022-12-05T06:19:49.658Z,9.00
2022-12-05T06:22:35.067Z,9.00
2022-12-05T06:25:21.877Z,9.00
2022-12-05T06:28:07.328Z,9.00
2022-12-05T06:30:54.560Z,9.00
2022-12-05T06:33:39.890Z,9.00
2022-12-05T06:36:26.788Z,9.10
2022-12-05T06:39:12.269Z,9.10
2022-12-05T06:41:57.928Z,9.10
2022-12-05T06:44:43.626Z,9.10
2022-12-05T06:47:29.534Z,9.10
2022-12-05T06:50:15.349Z,9.10
2022-12-05T06:53:00.974Z,9.10
2022-12-05T06:56:01.335Z,9.10
2022-12-05T06:58:50.163Z,9.20
2022-12-05T07:01:39.166Z,9.10
2022-12-05T07:04:25.265Z,9.10
2022-12-05T07:07:11.187Z,9.20
2022-12-05T07:09:57.582Z,9.20
2022-12-05T07:12:43.455Z,9.20
2022-12-05T07:15:29.362Z,9.30
2022-12-05T07:18:16.383Z,9.30
2022-12-05T07:21:12.080Z,9.30
2022-12-05T07:23:58.739Z,9.30
2022-12-05T07:26:44.083Z,9.30
2022-12-05T07:29:30.156Z,9.30
2022-12-05T07:32:15.714Z,9.30
2022-12-05T07:35:01.674Z,9.30
2022-12-05T07:37:47.118Z,9.20
2022-12-05T07:40:33.101Z,9.10
2022-12-05T07:43:18.725Z,9.10
2022-12-05T07:46:06.615Z,9.20
2022-12-05T07:48:52.766Z,9.30
2022-12-05T07:51:38.963Z,9.30
2022-12-05T07:54:24.432Z,9.30
2022-12-05T07:57:10.015Z,9.40
2022-12-05T07:59:56.331Z,9.40
2022-12-05T08:02:42.054Z,9.40
2022-12-05T08:05:27.943Z,9.40
2022-12-05T08:08:13.933Z,9.40
2022-12-05T08:11:17.509Z,9.40
2022-12-05T08:14:04.358Z,9.40
2022-12-05T08:16:50.145Z,9.40
2022-12-05T08:19:35.641Z,9.40
2022-12-05T08:22:21.753Z,9.40
2022-12-05T08:25:07.809Z,9.40
2022-12-05T08:27:53.613Z,9.40
2022-12-05T08:30:39.281Z,9.40
2022-12-05T08:33:24.999Z,9.50
2022-12-05T08:36:13.370Z,9.50
2022-12-05T08:39:01.364Z,9.50
2022-12-05T08:41:47.782Z,9.50
2022-12-05T08:44:33.480Z,9.50
2022-12-05T08:47:19.468Z,9.60
2022-12-05T08:50:05.346Z,9.60
2022-12-05T08:52:51.166Z,9.60
2022-12-05T08:55:37.049Z,9.60
2022-12-05T08:58:22.619Z,9.70
2022-12-05T09:01:14.065Z,9.70
2022-12-05T09:04:01.208Z,9.70
2022-12-05T09:06:46.832Z,9.70
2022-12-05T09:09:33.599Z,9.70
2022-12-05T09:12:19.582Z,9.60
2022-12-05T09:15:07.451Z,9.60
2022-12-05T09:17:52.836Z,9.10
2022-12-05T09:20:39.820Z,9.60
2022-12-05T09:23:25.344Z,9.60
2022-12-05T09:26:14.380Z,9.60
2022-12-05T09:29:01.396Z,9.60
2022-12-05T09:31:48.861Z,9.60
2022-12-05T09:34:35.042Z,9.70
2022-12-05T09:37:38.887Z,9.80
2022-12-05T09:40:25.426Z,9.80
2022-12-05T09:43:25.559Z,9.80
2022-12-05T09:46:35.888Z,9.80
2022-12-05T09:49:23.657Z,9.90
2022-12-05T09:52:17.872Z,9.90
2022-12-05T09:55:13.984Z,9.90
2022-12-05T09:58:02.431Z,10.00
2022-12-05T10:00:51.891Z,10.00
2022-12-05T10:03:58.235Z,10.10
2022-12-05T10:06:49.239Z,10.20
2022-12-05T10:09:53.974Z,10.20
2022-12-05T10:13:06.354Z,10.30
2022-12-05T10:16:02.933Z,10.30
2022-12-05T10:19:00.972Z,10.30
2022-12-05T10:21:52.521Z,10.30
2022-12-05T10:24:50.410Z,10.30
2022-12-05T10:27:40.268Z,10.20
2022-12-05T10:30:36.073Z,10.30
2022-12-05T10:33:23.935Z,10.30
2022-12-05T10:36:14.634Z,10.40
2022-12-05T10:39:00.566Z,10.30
2022-12-05T10:41:46.470Z,10.30
2022-12-05T10:44:34.040Z,10.40
2022-12-05T10:47:19.552Z,10.40
2022-12-05T10:50:19.916Z,10.30
2022-12-05T10:53:07.141Z,10.40
2022-12-05T10:56:28.057Z,10.40
2022-12-05T10:59:00.531Z,10.40
2022-12-05T11:01:58.677Z,10.40
2022-12-05T11:04:46.126Z,10.40
2022-12-05T11:07:35.405Z,10.40
2022-12-05T11:10:27.916Z,10.30
2022-12-05T11:13:24.928Z,10.40
2022-12-05T11:16:26.992Z,10.40
2022-12-05T11:19:22.024Z,10.50
2022-12-05T11:22:16.484Z,10.50
2022-12-05T11:25:28.443Z,10.50
2022-12-05T11:28:17.440Z,10.50
2022-12-05T11:31:16.854Z,10.40
2022-12-05T11:34:16.759Z,10.40
2022-12-05T11:37:28.415Z,10.50
2022-12-05T11:40:17.325Z,10.50
2022-12-05T11:43:24.331Z,10.60
2022-12-05T11:46:23.593Z,10.50
2022-12-05T11:49:24.061Z,10.50
2022-12-05T11:52:40.477Z,10.50
2022-12-05T11:55:29.392Z,10.50
2022-12-05T11:58:37.343Z,10.50
2022-12-05T12:01:44.635Z,10.50
2022-12-05T12:04:45.701Z,10.50
2022-12-05T12:07:37.400Z,10.40
2022-12-05T12:10:38.370Z,10.50
2022-12-05T12:13:57.755Z,10.50
2022-12-05T12:17:15.792Z,10.60
2022-12-05T12:20:37.871Z,10.60
2022-12-05T12:23:38.281Z,10.60
2022-12-05T12:26:42.472Z,10.60
2022-12-05T12:29:59.120Z,10.60
2022-12-05T12:32:53.861Z,10.60
2022-12-05T12:36:02.915Z,10.60
2022-12-05T12:39:18.212Z,10.60
2022-12-05T12:42:35.489Z,10.70
2022-12-05T12:45:39.658Z,10.70
2022-12-05T12:48:41.318Z,10.70
2022-12-05T12:51:30.165Z,10.70
2022-12-05T12:55:03.838Z,10.70
2022-12-05T12:58:06.115Z,10.70
2022-12-05T13:00:58.367Z,10.60
2022-12-05T13:03:52.356Z,10.70
2022-12-05T13:06:57.836Z,10.80
2022-12-05T13:10:07.910Z,10.80
2022-12-05T13:12:55.534Z,10.80
2022-12-05T13:15:54.641Z,10.90
2022-12-05T13:18:41.221Z,10.90
2022-12-05T13:21:28.480Z,10.90
2022-12-05T13:24:25.452Z,9.80
2022-12-05T13:27:20.456Z,11.00
2022-12-05T13:30:13.421Z,11.00
2022-12-05T13:33:06.934Z,11.20
2022-12-05T13:36:27.173Z,11.00
2022-12-05T13:42:30.416Z,11.00
2022-12-05T13:45:20.144Z,11.00
2022-12-05T13:48:20.735Z,11.00
2022-12-05T13:51:12.027Z,11.00
2022-12-05T13:54:03.742Z,10.90
2022-12-05T13:56:54.177Z,10.90
2022-12-05T14:00:08.097Z,10.90
2022-12-05T14:03:19.624Z,10.80
2022-12-05T14:06:06.975Z,10.70
2022-12-05T14:08:54.056Z,10.80
2022-12-05T14:12:10.593Z,10.80
2022-12-05T14:17:43.957Z,10.80
2022-12-05T14:20:52.613Z,10.80
2022-12-05T14:23:51.772Z,10.80
2022-12-05T14:27:08.506Z,10.90
2022-12-05T14:30:03.304Z,10.90
2022-12-05T14:32:50.401Z,10.90
2022-12-05T14:35:47.758Z,10.80
2022-12-05T14:38:36.675Z,10.80
2022-12-05T14:41:36.155Z,11.00
2022-12-05T14:47:20.115Z,10.70
2022-12-05T14:50:35.009Z,10.70
2022-12-05T14:53:34.924Z,10.50
2022-12-05T14:56:23.620Z,10.70
2022-12-05T14:59:33.488Z,10.70
2022-12-05T15:02:37.052Z,10.50
2022-12-05T15:05:31.390Z,10.60
2022-12-05T15:11:04.541Z,9.60
2022-12-05T15:13:50.866Z,10.70
2022-12-05T15:16:42.578Z,11.50
2022-12-05T15:19:43.372Z,10.50
2022-12-05T15:22:32.178Z,10.50
2022-12-05T15:25:33.209Z,8.40
2022-12-05T15:28:20.235Z,10.50
2022-12-05T15:31:11.787Z,10.50
2022-12-05T15:34:01.215Z,10.50
2022-12-05T15:37:03.971Z,10.50
2022-12-05T15:42:45.816Z,10.40
2022-12-05T15:54:11.852Z,10.40
2022-12-05T15:57:01.878Z,10.40
2022-12-05T16:00:02.888Z,10.50
2022-12-05T16:03:27.415Z,10.40
2022-12-05T16:06:20.316Z,10.40
2022-12-05T16:09:16.976Z,10.40
2022-12-05T16:12:05.677Z,10.40
2022-12-05T16:15:01.696Z,10.40
2022-12-05T16:17:53.061Z,10.40
2022-12-05T16:23:33.420Z,10.40
2022-12-05T16:26:25.064Z,10.50
2022-12-05T16:29:28.190Z,10.40
2022-12-05T16:32:24.457Z,10.70
2022-12-05T16:35:46.145Z,10.40
2022-12-05T16:44:31.632Z,10.60
2022-12-05T16:47:26.270Z,10.40
2022-12-05T16:50:34.989Z,10.40
2022-12-05T16:53:33.170Z,10.40
2022-12-05T16:56:27.516Z,10.20
2022-12-05T16:59:23.363Z,10.40
2022-12-05T17:02:14.797Z,10.50
2022-12-05T17:05:12.233Z,10.30
2022-12-05T17:13:32.535Z,10.30
2022-12-05T17:35:44.033Z,10.30
2022-12-05T17:38:29.595Z,10.30
2022-12-05T17:41:23.399Z,10.30
2022-12-05T17:44:13.734Z,10.40
2022-12-05T17:47:04.423Z,10.30
2022-12-05T17:49:53.015Z,10.30
2022-12-05T17:52:39.060Z,10.30
2022-12-05T17:55:28.485Z,10.20
2022-12-05T17:58:15.179Z,10.30
2022-12-05T18:03:48.882Z,10.30
2022-12-05T18:06:34.733Z,10.20
2022-12-05T18:09:20.523Z,10.30
2022-12-05T18:12:06.575Z,10.30
2022-12-05T18:14:52.391Z,10.30
2022-12-05T18:20:29.818Z,10.30
2022-12-05T18:23:15.560Z,10.30
2022-12-05T18:26:01.532Z,10.30
2022-12-05T18:31:33.422Z,10.30
2022-12-05T18:34:19.313Z,10.30
2022-12-05T18:37:05.039Z,10.30
2022-12-05T18:39:50.838Z,10.30
2022-12-05T18:42:36.987Z,10.30
2022-12-05T18:45:22.611Z,10.30
2022-12-05T18:48:31.447Z,10.30
2022-12-05T18:51:20.818Z,10.30
2022-12-05T18:54:06.828Z,10.40
2022-12-05T18:56:52.895Z,10.40
2022-12-05T18:59:38.719Z,9.70
2022-12-05T19:05:10.168Z,9.80
2022-12-05T19:07:56.093Z,10.30
2022-12-05T19:10:41.745Z,10.00
2022-12-05T19:16:14.626Z,10.60
2022-12-05T19:19:02.297Z,10.30
2022-12-05T19:24:34.203Z,10.00
2022-12-05T19:30:10.116Z,10.20
2022-12-05T19:32:56.272Z,10.20
2022-12-05T19:35:42.099Z,10.20
2022-12-05T19:38:31.556Z,10.30
2022-12-05T19:41:21.451Z,10.20
2022-12-05T19:44:07.263Z,10.20
2022-12-05T19:46:54.640Z,10.20
2022-12-05T19:49:40.295Z,10.00
2022-12-05T19:57:59.144Z,10.40
2022-12-05T20:00:45.164Z,11.40
2022-12-05T20:03:30.744Z,9.70
2022-12-05T20:06:17.539Z,10.50
2022-12-05T20:09:03.665Z,9.90
2022-12-05T20:11:56.039Z,10.20
2022-12-05T20:14:41.848Z,10.00
2022-12-05T20:20:14.172Z,10.30
2022-12-05T20:22:59.618Z,9.70
2022-12-05T20:28:32.528Z,10.50
2022-12-05T20:31:23.410Z,10.30
2022-12-05T20:34:13.901Z,10.40
2022-12-05T20:36:59.690Z,10.10
2022-12-05T20:39:45.646Z,10.40
2022-12-05T20:42:31.495Z,10.10
2022-12-05T20:45:17.754Z,10.50
2022-12-05T20:48:03.695Z,9.90
2022-12-05T20:50:49.275Z,9.70
2022-12-05T20:53:37.111Z,10.00
2022-12-05T20:56:31.806Z,11.20
2022-12-05T20:59:17.741Z,10.00
2022-12-05T21:02:03.688Z,10.20
2022-12-05T21:04:49.626Z,9.80
2022-12-05T21:07:35.033Z,9.80
2022-12-05T21:15:52.912Z,10.40
2022-12-05T21:18:39.718Z,9.90
2022-12-05T21:21:28.094Z,10.20
2022-12-05T21:26:59.861Z,9.70
2022-12-05T21:35:17.260Z,10.30
2022-12-05T21:40:48.768Z,10.10
2022-12-05T21:43:35.681Z,10.10
2022-12-05T21:46:21.651Z,9.30
2022-12-05T21:54:39.251Z,10.40
2022-12-05T21:57:24.917Z,9.30
2022-12-05T22:02:56.584Z,9.30
2022-12-05T22:08:29.974Z,9.50
2022-12-05T22:11:19.736Z,9.00
2022-12-05T22:14:05.762Z,9.50
2022-12-05T22:16:51.649Z,9.60
2022-12-05T22:19:37.350Z,9.70
2022-12-05T22:22:23.646Z,9.20
2022-12-05T22:25:10.502Z,9.30
2022-12-05T22:30:47.058Z,9.10
2022-12-05T22:33:35.611Z,8.70
2022-12-05T22:36:21.675Z,9.10
2022-12-05T22:39:07.563Z,9.00
2022-12-05T22:41:53.157Z,8.80
2022-12-05T22:44:38.971Z,12.70
2022-12-05T22:47:24.476Z,9.00
2022-12-05T22:50:10.417Z,9.20
2022-12-05T22:52:56.223Z,8.50
2022-12-05T22:55:41.816Z,8.80
2022-12-05T23:01:21.207Z,8.70
2022-12-05T23:04:10.676Z,8.60
2022-12-05T23:06:56.566Z,8.70
2022-12-05T23:09:42.045Z,8.80
2022-12-05T23:12:28.152Z,8.40
2022-12-05T23:15:14.201Z,8.30
2022-12-05T23:18:00.250Z,8.60
2022-12-05T23:20:46.432Z,8.20
2022-12-05T23:23:31.940Z,9.20
2022-12-05T23:26:18.720Z,8.20
2022-12-05T23:29:04.592Z,8.30
2022-12-05T23:31:50.092Z,7.90
2022-12-05T23:34:35.900Z,9.30
2022-12-05T23:37:21.853Z,7.80
2022-12-05T23:40:08.520Z,8.30
2022-12-05T23:42:54.064Z,8.10
2022-12-05T23:45:39.904Z,7.90
2022-12-05T23:48:26.027Z,8.20
2022-12-05T23:51:17.991Z,7.70
2022-12-05T23:54:04.172Z,7.60
2022-12-05T23:56:49.838Z,8.10
2022-12-05T23:59:35.774Z,8.10
